createdAt,value
2022-08-28T00:00:46.571Z,99.90
2022-08-28T00:03:17.372Z,99.90
2022-08-28T00:05:46.657Z,99.90
2022-08-28T00:08:16.890Z,99.90
2022-08-28T00:10:47.016Z,99.90
2022-08-28T00:13:20.489Z,99.90
2022-08-28T00:15:53.383Z,99.90
2022-08-28T00:18:23.201Z,99.90
2022-08-28T00:20:52.970Z,99.90
2022-08-28T00:23:22.829Z,99.90
2022-08-28T00:25:52.877Z,99.90
2022-08-28T00:28:24.158Z,99.90
2022-08-28T00:30:59.032Z,99.90
2022-08-28T00:33:32.994Z,99.90
2022-08-28T00:36:03.338Z,99.90
2022-08-28T00:38:33.224Z,99.90
2022-08-28T00:41:04.262Z,99.90
2022-08-28T00:43:39.476Z,99.90
2022-08-28T00:46:14.325Z,99.90
2022-08-28T00:48:43.218Z,99.90
2022-08-28T00:51:30.826Z,99.90
2022-08-28T00:54:04.289Z,99.90
2022-08-28T00:56:40.821Z,99.90
2022-08-28T00:59:14.378Z,99.90
2022-08-28T01:01:45.368Z,99.90
2022-08-28T01:04:16.801Z,99.90
2022-08-28T01:06:51.279Z,99.90
2022-08-28T01:09:20.957Z,99.90
2022-08-28T01:11:54.067Z,99.90
2022-08-28T01:14:24.339Z,99.90
2022-08-28T01:16:55.587Z,99.90
2022-08-28T01:19:32.792Z,99.90
2022-08-28T01:22:18.581Z,99.90
2022-08-28T01:24:53.758Z,99.90
2022-08-28T01:27:23.617Z,99.90
2022-08-28T01:29:54.288Z,99.90
2022-08-28T01:32:35.813Z,99.90
2022-08-28T01:35:06.786Z,99.90
2022-08-28T01:37:35.050Z,99.90
2022-08-28T01:40:05.452Z,99.90
2022-08-28T01:42:38.607Z,99.90
2022-08-28T01:45:11.954Z,99.90
2022-08-28T01:47:41.740Z,99.90
2022-08-28T01:50:14.762Z,99.90
2022-08-28T01:52:43.166Z,99.90
2022-08-28T01:55:14.067Z,99.90
2022-08-28T01:57:49.560Z,99.90
2022-08-28T02:00:18.996Z,99.90
2022-08-28T02:02:48.299Z,99.90
2022-08-28T02:05:19.763Z,99.90
2022-08-28T02:07:48.307Z,99.90
2022-08-28T02:10:19.493Z,99.90
2022-08-28T02:12:49.232Z,99.90
2022-08-28T02:15:18.415Z,99.90
2022-08-28T02:17:51.910Z,99.90
2022-08-28T02:20:20.414Z,99.90
2022-08-28T02:22:49.510Z,99.90
2022-08-28T02:25:20.975Z,99.90
2022-08-28T02:27:50.284Z,99.90
2022-08-28T02:30:20.170Z,99.90
2022-08-28T02:32:48.994Z,99.90
2022-08-28T02:35:21.498Z,99.90
2022-08-28T02:37:50.301Z,99.90
2022-08-28T02:40:23.965Z,99.90
2022-08-28T02:42:53.566Z,99.90
2022-08-28T02:45:22.573Z,99.90
2022-08-28T02:47:56.757Z,99.90
2022-08-28T02:50:25.494Z,99.90
2022-08-28T02:52:53.814Z,99.90
2022-08-28T02:55:24.590Z,99.90
2022-08-28T02:57:54.518Z,99.90
2022-08-28T03:00:26.854Z,99.90
2022-08-28T03:02:55.818Z,99.90
2022-08-28T03:05:27.600Z,99.90
2022-08-28T03:07:56.347Z,99.90
2022-08-28T03:10:26.023Z,99.90
2022-08-28T03:12:54.378Z,99.90
2022-08-28T03:15:23.374Z,99.90
2022-08-28T03:17:51.745Z,99.90
2022-08-28T03:20:20.361Z,99.90
2022-08-28T03:23:06.655Z,99.90
2022-08-28T03:25:36.593Z,99.90
2022-08-28T03:28:05.670Z,99.90
2022-08-28T03:30:34.124Z,99.90
2022-08-28T03:33:03.006Z,99.90
2022-08-28T03:35:31.738Z,99.90
2022-08-28T03:38:00.113Z,99.90
2022-08-28T03:40:29.079Z,99.90
2022-08-28T03:42:59.064Z,99.90
2022-08-28T03:45:28.115Z,99.90
2022-08-28T03:47:56.913Z,99.90
2022-08-28T03:50:26.140Z,99.90
2022-08-28T03:52:56.877Z,99.90
2022-08-28T03:55:25.694Z,99.90
2022-08-28T03:57:54.919Z,99.90
2022-08-28T04:00:25.309Z,99.90
2022-08-28T04:02:54.591Z,99.90
2022-08-28T04:05:23.205Z,99.90
2022-08-28T04:07:53.710Z,99.90
2022-08-28T04:10:22.005Z,99.90
2022-08-28T04:13:05.622Z,99.90
2022-08-28T04:15:36.301Z,99.90
2022-08-28T04:18:05.236Z,99.90
2022-08-28T04:20:33.766Z,99.90
2022-08-28T04:23:03.797Z,99.90
2022-08-28T04:25:32.810Z,99.90
2022-08-28T04:28:01.894Z,99.90
2022-08-28T04:30:30.537Z,99.90
2022-08-28T04:33:00.883Z,99.90
2022-08-28T04:35:29.555Z,99.90
2022-08-28T04:37:59.121Z,99.90
2022-08-28T04:40:27.494Z,99.90
2022-08-28T04:42:55.787Z,99.90
2022-08-28T04:45:24.064Z,99.90
2022-08-28T04:47:52.713Z,99.90
2022-08-28T04:50:22.341Z,99.90
2022-08-28T04:52:52.573Z,99.90
2022-08-28T04:55:33.809Z,99.90
2022-08-28T04:58:10.157Z,99.90
2022-08-28T05:00:40.537Z,99.90
2022-08-28T05:03:11.252Z,99.90
2022-08-28T05:05:44.588Z,99.90
2022-08-28T05:08:15.482Z,99.90
2022-08-28T05:10:46.342Z,99.90
2022-08-28T05:13:18.157Z,99.90
2022-08-28T05:15:50.434Z,99.90
2022-08-28T05:18:23.872Z,99.90
2022-08-28T05:20:53.688Z,99.90
2022-08-28T05:23:25.648Z,99.90
2022-08-28T05:25:54.840Z,99.90
2022-08-28T05:28:24.649Z,99.90
2022-08-28T05:30:53.884Z,99.90
2022-08-28T05:33:22.547Z,99.90
2022-08-28T05:35:50.847Z,99.90
2022-08-28T05:38:20.445Z,99.90
2022-08-28T05:40:50.069Z,99.90
2022-08-28T05:43:19.244Z,99.90
2022-08-28T05:45:59.977Z,99.90
2022-08-28T05:48:30.369Z,99.90
2022-08-28T05:51:06.647Z,99.90
2022-08-28T05:53:39.650Z,99.90
2022-08-28T05:56:09.318Z,99.90
2022-08-28T05:58:40.003Z,99.90
2022-08-28T06:01:13.491Z,99.90
2022-08-28T06:03:44.909Z,99.90
2022-08-28T06:06:13.979Z,99.90
2022-08-28T06:08:56.414Z,99.90
2022-08-28T06:11:31.011Z,99.90
2022-08-28T06:14:02.489Z,99.90
2022-08-28T06:16:33.082Z,99.90
2022-08-28T06:19:01.631Z,99.90
2022-08-28T06:21:30.687Z,99.90
2022-08-28T06:24:00.921Z,99.90
2022-08-28T06:26:30.023Z,99.90
2022-08-28T06:29:01.670Z,99.90
2022-08-28T06:31:33.463Z,99.90
2022-08-28T06:34:02.639Z,99.90
2022-08-28T06:36:35.323Z,99.90
2022-08-28T06:39:07.142Z,99.90
2022-08-28T06:41:40.899Z,99.90
2022-08-28T06:44:10.789Z,99.90
2022-08-28T06:46:40.353Z,99.90
2022-08-28T06:49:09.663Z,99.90
2022-08-28T06:51:38.357Z,99.90
2022-08-28T06:54:08.096Z,99.90
2022-08-28T06:56:37.016Z,99.90
2022-08-28T06:59:05.823Z,99.90
2022-08-28T07:01:36.990Z,99.90
2022-08-28T07:04:08.932Z,99.90
2022-08-28T07:06:41.120Z,99.90
2022-08-28T07:09:12.621Z,99.90
2022-08-28T07:11:41.396Z,99.90
2022-08-28T07:14:09.923Z,99.90
2022-08-28T07:16:40.577Z,99.90
2022-08-28T07:19:12.319Z,99.90
2022-08-28T07:21:43.782Z,99.90
2022-08-28T07:24:17.594Z,99.90
2022-08-28T07:26:48.351Z,99.90
2022-08-28T07:29:17.679Z,99.90
2022-08-28T07:31:49.070Z,99.90
2022-08-28T07:34:20.100Z,99.90
2022-08-28T07:36:51.835Z,99.90
2022-08-28T07:39:21.563Z,99.90
2022-08-28T07:41:50.295Z,99.90
2022-08-28T07:44:37.054Z,99.90
2022-08-28T07:47:08.649Z,99.90
2022-08-28T07:49:37.290Z,99.90
2022-08-28T07:52:07.295Z,99.90
2022-08-28T07:54:37.598Z,99.90
2022-08-28T07:57:09.145Z,99.90
2022-08-28T07:59:37.885Z,99.90
2022-08-28T08:02:07.958Z,99.90
2022-08-28T08:04:37.050Z,99.90
2022-08-28T08:07:06.367Z,99.90
2022-08-28T08:09:41.546Z,99.90
2022-08-28T08:12:12.146Z,99.90
2022-08-28T08:14:42.245Z,99.90
2022-08-28T08:17:11.233Z,99.90
2022-08-28T08:19:40.789Z,99.90
2022-08-28T08:22:10.004Z,99.90
2022-08-28T08:24:41.190Z,99.90
2022-08-28T08:27:10.504Z,99.90
2022-08-28T08:29:39.983Z,99.90
2022-08-28T08:32:12.200Z,98.80
2022-08-28T08:34:43.855Z,98.80
2022-08-28T08:37:13.538Z,99.70
2022-08-28T08:39:44.611Z,99.00
2022-08-28T08:42:27.226Z,97.30
2022-08-28T08:44:59.947Z,96.40
2022-08-28T08:47:39.427Z,96.50
2022-08-28T08:50:14.145Z,97.70
2022-08-28T08:52:59.729Z,97.70
2022-08-28T08:55:35.443Z,97.90
2022-08-28T08:58:11.487Z,97.70
2022-08-28T09:00:51.956Z,98.40
2022-08-28T09:03:27.475Z,99.20
2022-08-28T09:06:01.839Z,99.20
2022-08-28T09:08:44.427Z,99.00
2022-08-28T09:11:31.568Z,98.70
2022-08-28T09:14:11.027Z,98.20
2022-08-28T09:16:44.886Z,98.40
2022-08-28T09:19:19.643Z,97.90
2022-08-28T09:21:51.064Z,98.20
2022-08-28T09:24:25.729Z,97.90
2022-08-28T09:27:01.559Z,98.00
2022-08-28T09:29:34.367Z,97.90
2022-08-28T09:32:23.046Z,96.50
2022-08-28T09:35:14.444Z,95.90
2022-08-28T09:37:44.490Z,96.00
2022-08-28T09:40:26.424Z,95.20
2022-08-28T09:43:37.071Z,95.00
2022-08-28T09:46:21.784Z,96.50
2022-08-28T09:48:52.365Z,96.30
2022-08-28T09:51:30.440Z,95.50
2022-08-28T09:54:08.021Z,95.70
2022-08-28T09:56:40.521Z,95.50
2022-08-28T09:59:14.856Z,95.40
2022-08-28T10:02:14.029Z,95.80
2022-08-28T10:05:01.231Z,95.40
2022-08-28T10:07:39.293Z,95.50
2022-08-28T10:10:22.759Z,94.80
2022-08-28T10:13:04.989Z,94.40
2022-08-28T10:15:55.631Z,94.00
2022-08-28T10:18:38.266Z,94.90
2022-08-28T10:21:18.714Z,94.70
2022-08-28T10:24:15.855Z,95.30
2022-08-28T10:27:10.999Z,95.20
2022-08-28T10:29:54.621Z,94.80
2022-08-28T10:32:54.433Z,95.00
2022-08-28T10:35:30.168Z,95.40
2022-08-28T10:38:11.567Z,96.50
2022-08-28T10:40:48.219Z,97.40
2022-08-28T10:43:23.955Z,99.00
2022-08-28T10:45:53.105Z,99.10
2022-08-28T10:48:30.147Z,99.30
2022-08-28T10:51:05.695Z,99.50
2022-08-28T10:53:40.599Z,99.90
2022-08-28T10:56:18.146Z,99.90
2022-08-28T10:58:52.866Z,99.90
2022-08-28T11:01:29.488Z,99.90
2022-08-28T11:04:06.802Z,99.90
2022-08-28T11:06:42.447Z,99.90
2022-08-28T11:09:26.822Z,99.90
2022-08-28T11:12:02.027Z,99.90
2022-08-28T11:14:35.578Z,99.90
2022-08-28T11:17:42.119Z,99.90
2022-08-28T11:20:20.688Z,99.90
2022-08-28T11:22:56.449Z,99.90
2022-08-28T11:25:33.038Z,99.90
2022-08-28T11:28:19.625Z,99.90
2022-08-28T11:31:10.714Z,99.90
2022-08-28T11:33:56.286Z,99.90
2022-08-28T11:37:02.882Z,99.90
2022-08-28T11:39:31.223Z,99.90
2022-08-28T11:42:38.470Z,99.90
2022-08-28T11:45:07.802Z,99.90
2022-08-28T11:47:46.869Z,99.90
2022-08-28T11:50:52.227Z,99.90
2022-08-28T11:53:49.917Z,99.90
2022-08-28T11:56:41.363Z,99.90
2022-08-28T11:59:41.531Z,99.90
2022-08-28T12:02:51.955Z,99.90
2022-08-28T12:05:45.407Z,99.90
2022-08-28T12:09:08.964Z,99.90
2022-08-28T12:12:00.190Z,99.90
2022-08-28T12:15:07.531Z,99.90
2022-08-28T12:17:52.328Z,99.90
2022-08-28T12:20:40.915Z,99.90
2022-08-28T12:23:41.524Z,99.90
2022-08-28T12:26:22.490Z,99.90
2022-08-28T12:28:56.925Z,99.90
2022-08-28T12:32:18.804Z,99.90
2022-08-28T12:35:09.711Z,99.90
2022-08-28T12:37:52.016Z,99.90
2022-08-28T12:40:25.631Z,99.90
2022-08-28T12:43:00.086Z,99.90
2022-08-28T12:45:38.242Z,99.90
2022-08-28T12:48:17.795Z,99.90
2022-08-28T12:50:47.440Z,99.90
2022-08-28T12:53:19.408Z,99.90
2022-08-28T12:55:48.103Z,99.90
2022-08-28T12:58:31.975Z,99.90
2022-08-28T13:01:07.264Z,99.90
2022-08-28T13:03:43.433Z,99.90
2022-08-28T13:06:11.865Z,99.90
2022-08-28T13:08:41.525Z,99.90
2022-08-28T13:11:10.943Z,99.90
2022-08-28T13:13:49.542Z,99.90
2022-08-28T13:16:40.957Z,99.90
2022-08-28T13:19:28.892Z,99.90
2022-08-28T13:22:01.804Z,99.90
2022-08-28T13:24:46.592Z,99.90
2022-08-28T13:27:26.291Z,99.90
2022-08-28T13:30:05.631Z,99.90
2022-08-28T13:32:38.943Z,99.90
2022-08-28T13:35:30.175Z,99.90
2022-08-28T13:38:01.151Z,99.90
2022-08-28T13:43:26.051Z,99.90
2022-08-28T13:45:55.175Z,99.90
2022-08-28T13:48:28.463Z,99.90
2022-08-28T13:51:04.922Z,99.90
2022-08-28T13:53:36.934Z,99.90
2022-08-28T13:56:05.686Z,99.90
2022-08-28T13:58:34.109Z,99.90
2022-08-28T14:01:03.377Z,99.90
2022-08-28T14:03:36.253Z,99.90
2022-08-28T14:06:09.106Z,99.90
2022-08-28T14:08:37.465Z,99.90
2022-08-28T14:11:07.173Z,99.90
2022-08-28T14:13:36.171Z,99.90
2022-08-28T14:16:07.895Z,99.90
2022-08-28T14:18:37.549Z,99.90
2022-08-28T14:21:07.279Z,99.90
2022-08-28T14:23:35.583Z,99.90
2022-08-28T14:26:06.711Z,99.90
2022-08-28T14:28:35.236Z,99.90
2022-08-28T14:31:11.022Z,99.90
2022-08-28T14:33:45.225Z,99.90
2022-08-28T14:36:20.971Z,99.90
2022-08-28T14:38:53.889Z,99.90
2022-08-28T14:41:23.104Z,99.90
2022-08-28T14:43:52.021Z,99.90
2022-08-28T14:46:23.359Z,99.90
2022-08-28T14:48:53.290Z,99.90
2022-08-28T14:51:21.569Z,99.90
2022-08-28T14:53:50.504Z,99.90
2022-08-28T14:56:19.734Z,99.90
2022-08-28T14:58:48.204Z,99.90
2022-08-28T15:01:39.667Z,99.90
2022-08-28T15:04:15.590Z,99.90
2022-08-28T15:06:44.542Z,99.90
2022-08-28T15:09:14.759Z,99.90
2022-08-28T15:11:44.726Z,99.90
2022-08-28T15:14:13.485Z,99.90
2022-08-28T15:16:45.235Z,99.90
2022-08-28T15:19:18.035Z,99.90
2022-08-28T15:21:51.075Z,99.90
2022-08-28T15:24:24.743Z,99.90
2022-08-28T15:26:53.955Z,99.90
2022-08-28T15:29:22.302Z,99.90
2022-08-28T15:31:52.725Z,99.90
2022-08-28T15:34:25.604Z,99.90
2022-08-28T15:36:56.261Z,99.90
2022-08-28T15:39:43.004Z,99.90
2022-08-28T15:42:12.478Z,99.70
2022-08-28T15:44:41.926Z,98.90
2022-08-28T15:47:10.503Z,98.90
2022-08-28T15:49:44.662Z,98.60
2022-08-28T15:52:19.474Z,98.30
2022-08-28T15:54:48.709Z,98.40
2022-08-28T15:57:17.641Z,97.40
2022-08-28T15:59:49.614Z,98.10
2022-08-28T16:02:21.261Z,98.70
2022-08-28T16:04:52.758Z,98.80
2022-08-28T16:07:23.310Z,99.20
2022-08-28T16:09:52.670Z,99.30
2022-08-28T16:12:21.428Z,99.10
2022-08-28T16:14:50.447Z,99.50
2022-08-28T16:17:20.037Z,99.20
2022-08-28T16:19:49.338Z,99.40
2022-08-28T16:22:20.443Z,99.20
2022-08-28T16:24:50.647Z,98.90
2022-08-28T16:27:19.490Z,98.90
2022-08-28T16:29:52.956Z,98.70
2022-08-28T16:32:21.474Z,99.00
2022-08-28T16:34:51.590Z,98.70
2022-08-28T16:37:21.497Z,98.10
2022-08-28T16:39:55.986Z,98.00
2022-08-28T16:42:24.655Z,97.80
2022-08-28T16:44:58.885Z,97.80
2022-08-28T16:47:28.493Z,97.30
2022-08-28T16:50:02.588Z,97.20
2022-08-28T16:52:32.630Z,97.20
2022-08-28T16:55:00.904Z,97.20
2022-08-28T16:57:30.274Z,97.20
2022-08-28T17:00:00.308Z,97.30
2022-08-28T17:02:29.309Z,97.60
2022-08-28T17:05:00.334Z,98.00
2022-08-28T17:07:30.214Z,98.30
2022-08-28T17:10:00.443Z,98.40
2022-08-28T17:12:29.575Z,98.60
2022-08-28T17:14:57.876Z,99.10
2022-08-28T17:17:26.391Z,99.50
2022-08-28T17:19:54.749Z,99.30
2022-08-28T17:22:31.969Z,99.70
2022-08-28T17:25:07.462Z,99.90
2022-08-28T17:27:36.655Z,99.90
2022-08-28T17:30:06.135Z,99.90
2022-08-28T17:32:34.833Z,99.90
2022-08-28T17:35:05.265Z,99.90
2022-08-28T17:37:33.918Z,99.90
2022-08-28T17:40:05.465Z,99.90
2022-08-28T17:42:33.771Z,99.90
2022-08-28T17:45:02.122Z,99.90
2022-08-28T17:47:31.745Z,99.90
2022-08-28T17:50:01.467Z,99.90
2022-08-28T17:52:30.490Z,99.90
2022-08-28T17:54:59.523Z,99.90
2022-08-28T17:57:31.567Z,99.90
2022-08-28T18:00:01.303Z,99.90
2022-08-28T18:02:40.934Z,99.90
2022-08-28T18:05:13.365Z,99.90
2022-08-28T18:07:42.129Z,99.90
2022-08-28T18:10:11.987Z,99.90
2022-08-28T18:12:42.637Z,99.90
2022-08-28T18:15:14.831Z,99.90
2022-08-28T18:17:50.122Z,99.90
2022-08-28T18:20:20.315Z,99.90
2022-08-28T18:22:49.764Z,99.90
2022-08-28T18:25:32.943Z,99.90
2022-08-28T18:28:04.811Z,99.90
2022-08-28T18:30:33.823Z,99.90
2022-08-28T18:33:04.350Z,99.90
2022-08-28T18:35:33.017Z,99.90
2022-08-28T18:38:02.170Z,99.90
2022-08-28T18:40:31.182Z,99.90
2022-08-28T18:42:59.709Z,99.90
2022-08-28T18:45:31.651Z,99.90
2022-08-28T18:48:01.257Z,99.90
2022-08-28T18:50:32.331Z,99.90
2022-08-28T18:53:01.396Z,99.90
2022-08-28T18:55:32.297Z,99.90
2022-08-28T18:58:02.937Z,99.90
2022-08-28T19:00:33.100Z,99.90
2022-08-28T19:03:01.686Z,99.90
2022-08-28T19:05:30.666Z,99.90
2022-08-28T19:08:02.108Z,99.90
2022-08-28T19:10:34.990Z,99.90
2022-08-28T19:13:04.537Z,99.90
2022-08-28T19:15:37.203Z,99.90
2022-08-28T19:18:06.632Z,99.90
2022-08-28T19:20:35.747Z,99.90
2022-08-28T19:23:04.141Z,99.90
2022-08-28T19:25:33.248Z,99.90
2022-08-28T19:28:03.071Z,99.90
2022-08-28T19:30:36.213Z,99.90
2022-08-28T19:33:06.167Z,99.90
2022-08-28T19:35:34.698Z,99.90
2022-08-28T19:38:03.249Z,99.90
2022-08-28T19:40:33.569Z,99.90
2022-08-28T19:43:02.027Z,99.90
2022-08-28T19:45:30.405Z,99.90
2022-08-28T19:48:01.075Z,99.90
2022-08-28T19:50:30.016Z,99.90
2022-08-28T19:52:58.986Z,99.90
2022-08-28T19:55:29.644Z,99.90
2022-08-28T19:57:58.087Z,99.90
2022-08-28T20:00:29.466Z,99.90
2022-08-28T20:02:57.933Z,99.90
2022-08-28T20:05:28.056Z,99.90
2022-08-28T20:07:56.431Z,99.90
2022-08-28T20:10:27.503Z,99.90
2022-08-28T20:12:56.257Z,99.90
2022-08-28T20:15:25.031Z,99.90
2022-08-28T20:17:53.698Z,99.90
2022-08-28T20:20:27.979Z,99.90
2022-08-28T20:22:59.657Z,99.90
2022-08-28T20:25:28.104Z,99.90
2022-08-28T20:28:07.009Z,99.90
2022-08-28T20:30:35.353Z,99.90
2022-08-28T20:33:04.249Z,99.90
2022-08-28T20:35:32.749Z,99.90
2022-08-28T20:38:03.147Z,99.90
2022-08-28T20:40:32.279Z,99.90
2022-08-28T20:43:00.798Z,99.90
2022-08-28T20:45:30.125Z,99.90
2022-08-28T20:47:58.996Z,99.90
2022-08-28T20:50:27.353Z,99.90
2022-08-28T20:52:55.647Z,99.90
2022-08-28T20:55:25.248Z,99.90
2022-08-28T20:57:53.539Z,99.90
2022-08-28T21:00:22.661Z,99.90
2022-08-28T21:02:51.692Z,99.90
2022-08-28T21:05:20.072Z,99.90
2022-08-28T21:07:48.936Z,99.90
2022-08-28T21:10:17.431Z,99.90
2022-08-28T21:12:51.283Z,99.90
2022-08-28T21:15:19.877Z,99.90
2022-08-28T21:17:48.517Z,99.90
2022-08-28T21:20:17.401Z,99.90
2022-08-28T21:22:46.922Z,99.90
2022-08-28T21:25:17.439Z,99.90
2022-08-28T21:27:46.883Z,99.90
2022-08-28T21:30:21.741Z,99.90
2022-08-28T21:32:51.187Z,99.90
2022-08-28T21:35:21.417Z,99.90
2022-08-28T21:37:50.937Z,99.90
2022-08-28T21:40:20.447Z,99.90
2022-08-28T21:42:49.403Z,99.90
2022-08-28T21:45:19.711Z,99.90
2022-08-28T21:47:48.053Z,99.90
2022-08-28T21:50:16.692Z,99.90
2022-08-28T21:52:45.494Z,99.90
2022-08-28T21:55:16.425Z,99.90
2022-08-28T21:57:44.829Z,99.90
2022-08-28T22:00:20.663Z,99.90
2022-08-28T22:02:50.630Z,99.90
2022-08-28T22:05:20.389Z,99.90
2022-08-28T22:07:49.542Z,99.90
2022-08-28T22:10:18.206Z,99.90
2022-08-28T22:12:46.798Z,99.90
2022-08-28T22:15:15.157Z,99.90
2022-08-28T22:17:44.809Z,99.90
2022-08-28T22:20:13.239Z,99.90
2022-08-28T22:22:59.271Z,99.90
2022-08-28T22:25:27.567Z,99.90
2022-08-28T22:27:56.404Z,99.90
2022-08-28T22:30:25.381Z,99.90
2022-08-28T22:32:55.102Z,99.90
2022-08-28T22:35:23.669Z,99.90
2022-08-28T22:37:51.985Z,99.90
2022-08-28T22:40:20.732Z,99.90
2022-08-28T22:42:50.386Z,99.90
2022-08-28T22:45:20.327Z,99.90
2022-08-28T22:47:50.154Z,99.90
2022-08-28T22:50:21.096Z,99.90
2022-08-28T22:52:50.845Z,99.90
2022-08-28T22:55:21.865Z,99.90
2022-08-28T22:57:50.367Z,99.90
2022-08-28T23:00:23.846Z,99.90
2022-08-28T23:02:55.182Z,99.90
2022-08-28T23:05:27.651Z,99.90
2022-08-28T23:07:56.455Z,99.90
2022-08-28T23:10:42.161Z,99.90
2022-08-28T23:13:14.467Z,99.90
2022-08-28T23:15:44.403Z,99.90
2022-08-28T23:18:12.903Z,99.90
2022-08-28T23:20:43.532Z,99.90
2022-08-28T23:23:12.180Z,99.90
2022-08-28T23:25:40.731Z,99.90
2022-08-28T23:28:09.599Z,99.90
2022-08-28T23:30:38.883Z,99.90
2022-08-28T23:33:08.550Z,99.90
2022-08-28T23:35:37.486Z,99.90
2022-08-28T23:38:07.305Z,99.90
2022-08-28T23:40:37.354Z,99.90
2022-08-28T23:43:06.290Z,99.90
2022-08-28T23:45:35.320Z,99.90
2022-08-28T23:48:04.275Z,99.90
2022-08-28T23:50:34.493Z,99.90
2022-08-28T23:53:03.592Z,99.90
2022-08-28T23:55:34.676Z,99.90
2022-08-28T23:58:05.319Z,99.90
